createdAt,value
2023-05-08T00:00:47.496Z,4.65
2023-05-08T00:03:14.270Z,5.15
2023-05-08T00:05:43.875Z,5.65
2023-05-08T00:08:10.568Z,4.05
2023-05-08T00:10:37.253Z,4.10
2023-05-08T00:13:03.916Z,4.75
2023-05-08T00:15:30.530Z,4.18
2023-05-08T00:17:57.567Z,4.85
2023-05-08T00:20:24.205Z,3.38
2023-05-08T00:22:50.788Z,4.18
2023-05-08T00:25:17.444Z,4.70
2023-05-08T00:27:44.060Z,4.85
2023-05-08T00:30:11.283Z,4.82
2023-05-08T00:32:38.245Z,4.13
2023-05-08T00:35:05.195Z,6.30
2023-05-08T00:37:31.696Z,6.55
2023-05-08T00:39:58.291Z,3.78
2023-05-08T00:42:24.846Z,6.22
2023-05-08T00:44:52.323Z,5.15
2023-05-08T00:47:22.155Z,5.65
2023-05-08T00:49:49.246Z,5.97
2023-05-08T00:52:16.784Z,5.00
2023-05-08T00:54:44.331Z,4.80
2023-05-08T00:57:11.181Z,5.13
2023-05-08T00:59:41.493Z,4.30
2023-05-08T01:02:08.811Z,8.77
2023-05-08T01:04:37.045Z,6.93
2023-05-08T01:07:03.680Z,6.25
2023-05-08T01:09:30.248Z,6.00
2023-05-08T01:11:56.925Z,6.60
2023-05-08T01:14:39.806Z,4.88
2023-05-08T01:17:23.655Z,4.70
2023-05-08T01:20:19.267Z,4.47
2023-05-08T01:23:30.587Z,5.22
2023-05-08T01:26:22.468Z,5.47
2023-05-08T01:29:08.467Z,5.57
2023-05-08T01:31:54.282Z,4.32
2023-05-08T01:34:26.782Z,10.88
2023-05-08T01:37:01.055Z,7.57
2023-05-08T01:39:47.322Z,11.25
2023-05-08T01:42:33.998Z,14.15
2023-05-08T01:47:33.133Z,12.32
2023-05-08T01:50:16.818Z,6.53
2023-05-08T01:52:51.459Z,8.95
2023-05-08T01:55:24.545Z,7.18
2023-05-08T01:57:54.220Z,4.78
2023-05-08T02:00:23.818Z,5.32
2023-05-08T02:02:52.509Z,5.55
2023-05-08T02:05:21.665Z,6.18
2023-05-08T02:10:16.632Z,6.80
2023-05-08T02:12:44.591Z,6.20
2023-05-08T02:15:14.378Z,5.15
2023-05-08T02:17:43.574Z,6.65
2023-05-08T02:20:14.860Z,5.57
2023-05-08T02:22:44.666Z,7.30
2023-05-08T02:25:14.528Z,5.43
2023-05-08T02:27:46.574Z,7.32
2023-05-08T02:30:16.255Z,5.40
2023-05-08T02:32:45.060Z,9.48
2023-05-08T02:35:19.668Z,10.43
2023-05-08T02:37:49.671Z,5.88
2023-05-08T02:40:18.627Z,6.60
2023-05-08T02:42:46.690Z,8.65
2023-05-08T02:45:14.115Z,5.50
2023-05-08T02:47:52.079Z,11.75
2023-05-08T02:50:24.316Z,5.95
2023-05-08T02:53:03.326Z,6.30
2023-05-08T02:55:42.831Z,8.98
2023-05-08T02:58:34.994Z,14.50
2023-05-08T03:01:11.546Z,9.57
2023-05-08T03:03:42.104Z,5.55
2023-05-08T03:06:13.752Z,5.38
2023-05-08T03:08:42.193Z,8.93
2023-05-08T03:11:14.545Z,13.13
2023-05-08T03:13:42.946Z,6.82
2023-05-08T03:16:20.604Z,8.45
2023-05-08T03:19:04.926Z,12.05
2023-05-08T03:21:32.347Z,9.20
2023-05-08T03:24:02.245Z,9.68
2023-05-08T03:26:29.428Z,7.70
2023-05-08T03:28:57.639Z,8.85
2023-05-08T03:31:25.739Z,7.40
2023-05-08T03:33:54.397Z,7.72
2023-05-08T03:36:22.527Z,6.80
2023-05-08T03:38:49.361Z,9.35
2023-05-08T03:41:15.972Z,11.27
2023-05-08T03:43:43.277Z,8.82
2023-05-08T03:46:12.520Z,11.40
2023-05-08T03:48:41.323Z,8.95
2023-05-08T03:51:08.376Z,8.93
2023-05-08T03:53:34.987Z,12.95
2023-05-08T03:56:02.321Z,8.77
2023-05-08T03:58:37.293Z,8.70
2023-05-08T04:03:53.660Z,12.85
2023-05-08T04:06:48.518Z,12.68
2023-05-08T04:09:34.943Z,7.55
2023-05-08T04:12:22.100Z,6.10
2023-05-08T04:14:55.681Z,7.85
2023-05-08T04:17:41.198Z,7.00
2023-05-08T04:20:12.171Z,7.18
2023-05-08T04:22:40.563Z,9.55
2023-05-08T04:25:09.121Z,8.93
2023-05-08T04:27:38.110Z,6.93
2023-05-08T04:30:05.512Z,8.30
2023-05-08T04:32:33.687Z,9.48
2023-05-08T04:35:00.851Z,10.75
2023-05-08T04:37:31.823Z,9.80
2023-05-08T04:39:59.223Z,9.13
2023-05-08T04:42:26.405Z,8.30
2023-05-08T04:44:54.038Z,6.22
2023-05-08T04:47:21.319Z,12.45
2023-05-08T04:49:47.935Z,10.15
2023-05-08T04:52:14.553Z,20.65
2023-05-08T04:54:41.307Z,14.50
2023-05-08T04:57:08.303Z,13.45
2023-05-08T04:59:34.874Z,7.68
2023-05-08T05:02:06.132Z,10.57
2023-05-08T05:04:32.758Z,7.10
2023-05-08T05:06:59.417Z,9.43
2023-05-08T05:09:26.033Z,9.85
2023-05-08T05:11:52.567Z,9.75
2023-05-08T05:14:19.220Z,8.00
2023-05-08T05:16:45.967Z,6.38
2023-05-08T05:19:12.918Z,7.78
2023-05-08T05:21:39.650Z,8.75
2023-05-08T05:24:06.619Z,9.00
2023-05-08T05:26:34.785Z,9.02
2023-05-08T05:29:02.332Z,10.18
2023-05-08T05:31:29.935Z,8.55
2023-05-08T05:33:56.624Z,10.25
2023-05-08T05:36:25.206Z,9.77
2023-05-08T05:38:51.744Z,10.48
2023-05-08T05:41:18.296Z,8.52
2023-05-08T05:43:44.857Z,9.60
2023-05-08T05:46:13.492Z,9.30
2023-05-08T05:48:40.227Z,9.18
2023-05-08T05:51:06.888Z,10.75
2023-05-08T05:53:33.453Z,9.15
2023-05-08T05:56:00.132Z,11.57
2023-05-08T05:58:28.460Z,9.75
2023-05-08T06:00:55.115Z,11.90
2023-05-08T06:03:21.685Z,9.52
2023-05-08T06:05:48.337Z,9.32
2023-05-08T06:08:17.871Z,10.07
2023-05-08T06:10:44.502Z,12.57
2023-05-08T06:13:11.368Z,13.65
2023-05-08T06:15:37.921Z,15.65
2023-05-08T06:18:04.945Z,14.50
2023-05-08T06:20:31.464Z,17.20
2023-05-08T06:22:58.011Z,19.45
2023-05-08T06:25:24.744Z,15.20
2023-05-08T06:27:51.552Z,15.38
2023-05-08T06:30:18.115Z,15.68
2023-05-08T06:32:44.720Z,17.45
2023-05-08T06:35:12.389Z,15.85
2023-05-08T06:37:41.985Z,15.20
2023-05-08T06:40:12.024Z,16.92
2023-05-08T06:42:44.113Z,16.35
2023-05-08T06:45:11.317Z,15.15
2023-05-08T06:47:38.605Z,16.70
2023-05-08T06:50:05.803Z,16.20
2023-05-08T06:52:32.803Z,16.92
2023-05-08T06:54:59.304Z,14.70
2023-05-08T06:57:27.216Z,15.13
2023-05-08T06:59:54.246Z,16.95
2023-05-08T07:02:20.787Z,16.05
2023-05-08T07:04:48.193Z,15.85
2023-05-08T07:07:15.327Z,15.98
2023-05-08T07:09:42.038Z,17.38
2023-05-08T07:12:08.978Z,20.00
2023-05-08T07:14:35.510Z,17.92
2023-05-08T07:17:06.905Z,18.33
2023-05-08T07:19:36.440Z,19.17
2023-05-08T07:22:03.278Z,15.90
2023-05-08T07:24:29.931Z,15.85
2023-05-08T07:26:56.623Z,20.33
2023-05-08T07:29:23.100Z,19.52
2023-05-08T07:31:50.910Z,23.05
2023-05-08T07:34:17.880Z,21.77
2023-05-08T07:36:45.151Z,17.38
2023-05-08T07:39:11.619Z,24.77
2023-05-08T07:41:40.986Z,20.52
2023-05-08T07:44:08.063Z,22.13
2023-05-08T07:46:34.929Z,19.83
2023-05-08T07:49:01.727Z,20.20
2023-05-08T07:51:28.931Z,22.85
2023-05-08T07:53:55.724Z,18.60
2023-05-08T07:56:25.177Z,21.42
2023-05-08T07:58:51.780Z,24.08
2023-05-08T08:01:18.496Z,21.42
2023-05-08T08:03:46.181Z,20.05
2023-05-08T08:06:13.332Z,22.77
2023-05-08T08:08:41.307Z,20.75
2023-05-08T08:11:07.925Z,24.38
2023-05-08T08:13:34.624Z,20.55
2023-05-08T08:16:04.988Z,21.48
2023-05-08T08:18:35.724Z,23.92
2023-05-08T08:21:06.324Z,20.58
2023-05-08T08:23:33.241Z,23.40
2023-05-08T08:25:59.880Z,24.65
2023-05-08T08:28:26.645Z,22.95
2023-05-08T08:30:53.328Z,20.85
2023-05-08T08:33:19.918Z,22.05
2023-05-08T08:35:46.591Z,19.85
2023-05-08T08:38:13.358Z,22.63
2023-05-08T08:40:46.580Z,20.00
2023-05-08T08:43:13.341Z,21.10
2023-05-08T08:45:39.971Z,24.63
2023-05-08T08:48:11.763Z,19.63
2023-05-08T08:50:43.058Z,22.17
2023-05-08T08:53:24.607Z,20.75
2023-05-08T08:55:55.743Z,23.92
2023-05-08T08:58:31.403Z,20.40
2023-05-08T09:01:00.563Z,19.88
2023-05-08T09:03:27.892Z,21.42
2023-05-08T09:05:55.296Z,20.52
2023-05-08T09:08:21.911Z,20.23
2023-05-08T09:10:48.569Z,20.30
2023-05-08T09:13:16.620Z,21.10
2023-05-08T09:15:43.945Z,21.33
2023-05-08T09:18:10.464Z,20.83
2023-05-08T09:20:37.327Z,19.48
2023-05-08T09:23:04.205Z,20.00
2023-05-08T09:25:44.266Z,21.63
2023-05-08T09:28:24.319Z,18.58
2023-05-08T09:30:51.837Z,17.45
2023-05-08T09:33:18.441Z,19.00
2023-05-08T09:35:44.887Z,17.65
2023-05-08T09:38:38.685Z,21.70
2023-05-08T09:41:12.137Z,18.10
2023-05-08T09:43:39.090Z,17.75
2023-05-08T09:46:26.672Z,19.23
2023-05-08T09:48:55.353Z,18.85
2023-05-08T09:51:23.414Z,18.75
2023-05-08T09:53:57.366Z,18.42
2023-05-08T09:56:53.393Z,20.63
2023-05-08T09:59:24.165Z,23.27
2023-05-08T10:01:50.964Z,21.50
2023-05-08T10:04:17.547Z,20.00
2023-05-08T10:06:44.344Z,21.60
2023-05-08T10:09:13.315Z,20.90
2023-05-08T10:11:41.526Z,21.00
2023-05-08T10:14:08.757Z,21.65
2023-05-08T10:16:49.089Z,20.55
2023-05-08T10:19:18.191Z,21.48
2023-05-08T10:21:53.182Z,25.20
2023-05-08T10:24:25.765Z,25.98
2023-05-08T10:27:06.977Z,26.85
2023-05-08T10:29:43.015Z,28.45
2023-05-08T10:32:10.547Z,32.22
2023-05-08T10:34:40.754Z,30.48
2023-05-08T10:37:11.462Z,34.55
2023-05-08T10:39:38.746Z,29.85
2023-05-08T10:42:05.251Z,35.00
2023-05-08T10:44:32.537Z,37.55
2023-05-08T10:47:11.828Z,38.08
2023-05-08T10:49:38.233Z,42.75
2023-05-08T10:52:24.557Z,42.70
2023-05-08T10:54:53.906Z,44.03
2023-05-08T10:57:21.527Z,42.30
2023-05-08T10:59:48.036Z,43.78
2023-05-08T11:02:15.530Z,39.33
2023-05-08T11:04:43.923Z,38.20
2023-05-08T11:07:11.513Z,40.75
2023-05-08T11:09:41.033Z,43.75
2023-05-08T11:12:16.507Z,40.35
2023-05-08T11:14:45.836Z,45.72
2023-05-08T11:17:12.370Z,41.63
2023-05-08T11:19:38.988Z,41.47
2023-05-08T11:22:24.205Z,42.75
2023-05-08T11:24:54.881Z,46.65
2023-05-08T11:27:50.814Z,43.53
2023-05-08T11:30:25.590Z,41.63
2023-05-08T11:33:04.605Z,44.40
2023-05-08T11:36:01.558Z,45.65
2023-05-08T11:38:40.210Z,49.05
2023-05-08T11:41:10.381Z,45.38
2023-05-08T11:44:09.665Z,47.80
2023-05-08T11:46:48.348Z,46.58
2023-05-08T11:49:22.687Z,47.92
2023-05-08T11:51:57.848Z,44.90
2023-05-08T11:54:25.798Z,45.25
2023-05-08T11:56:57.008Z,43.28
2023-05-08T11:59:23.413Z,44.75
2023-05-08T12:04:21.228Z,47.65
2023-05-08T12:06:48.268Z,45.35
2023-05-08T12:09:17.432Z,46.15
2023-05-08T12:11:45.379Z,45.05
2023-05-08T12:14:13.860Z,44.83
2023-05-08T12:16:40.891Z,40.33
2023-05-08T12:19:12.357Z,52.20
2023-05-08T12:21:39.749Z,48.78
2023-05-08T12:24:18.749Z,43.78
2023-05-08T12:26:46.400Z,44.20
2023-05-08T12:29:12.851Z,38.15
2023-05-08T12:31:42.336Z,38.35
2023-05-08T12:34:10.027Z,42.95
2023-05-08T12:36:37.162Z,35.05
2023-05-08T12:39:15.198Z,38.22
2023-05-08T12:41:46.265Z,40.13
2023-05-08T12:44:38.982Z,37.30
2023-05-08T12:47:06.545Z,38.55
2023-05-08T12:49:33.019Z,35.42
2023-05-08T12:52:04.504Z,32.83
2023-05-08T12:54:33.781Z,33.42
2023-05-08T12:57:00.675Z,34.97
2023-05-08T12:59:33.576Z,34.10
2023-05-08T13:02:00.213Z,31.33
2023-05-08T13:04:27.204Z,31.95
2023-05-08T13:06:55.762Z,33.97
2023-05-08T13:11:50.015Z,26.27
2023-05-08T13:14:16.664Z,28.63
2023-05-08T13:16:47.843Z,29.60
2023-05-08T13:19:16.008Z,29.27
2023-05-08T13:21:44.695Z,28.55
2023-05-08T13:24:11.081Z,28.20
2023-05-08T13:26:37.537Z,35.55
2023-05-08T13:29:03.919Z,29.15
2023-05-08T13:31:30.698Z,30.85
2023-05-08T13:33:57.395Z,29.17
2023-05-08T13:36:24.470Z,28.40
2023-05-08T13:38:57.087Z,28.92
2023-05-08T13:41:23.473Z,32.47
2023-05-08T13:43:49.818Z,28.15
2023-05-08T13:46:16.370Z,28.05
2023-05-08T13:48:43.044Z,28.75
2023-05-08T13:51:09.443Z,29.95
2023-05-08T13:53:36.078Z,29.13
2023-05-08T13:56:02.670Z,28.73
2023-05-08T13:58:29.370Z,29.42
2023-05-08T14:00:55.741Z,29.17
2023-05-08T14:03:22.398Z,30.67
2023-05-08T14:05:48.875Z,30.42
2023-05-08T14:08:15.323Z,26.73
2023-05-08T14:10:41.835Z,28.13
2023-05-08T14:13:08.312Z,30.60
2023-05-08T14:15:37.272Z,30.02
2023-05-08T14:18:04.646Z,27.67
2023-05-08T14:20:31.070Z,27.20
2023-05-08T14:23:00.051Z,30.05
2023-05-08T14:25:26.906Z,30.98
2023-05-08T14:27:53.508Z,28.67
2023-05-08T14:30:19.990Z,31.17
2023-05-08T14:32:46.643Z,26.48
2023-05-08T14:35:14.418Z,29.27
2023-05-08T14:37:41.152Z,27.90
2023-05-08T14:40:08.298Z,27.73
2023-05-08T14:42:34.832Z,28.75
2023-05-08T14:45:01.414Z,27.20
2023-05-08T14:47:28.076Z,30.27
2023-05-08T14:49:54.672Z,29.15
2023-05-08T14:52:21.139Z,30.40
2023-05-08T14:57:39.551Z,25.73
2023-05-08T15:00:06.768Z,26.00
2023-05-08T15:02:33.368Z,28.02
2023-05-08T15:04:59.833Z,30.75
2023-05-08T15:07:26.244Z,25.65
2023-05-08T15:09:53.145Z,25.65
2023-05-08T15:12:19.639Z,27.65
2023-05-08T15:14:46.463Z,27.85
2023-05-08T15:17:12.922Z,30.48
2023-05-08T15:19:42.453Z,25.70
2023-05-08T15:22:08.989Z,25.70
2023-05-08T15:24:35.423Z,26.50
2023-05-08T15:27:01.944Z,25.02
2023-05-08T15:29:28.407Z,27.08
2023-05-08T15:31:54.998Z,30.52
2023-05-08T15:34:23.290Z,25.92
2023-05-08T15:36:49.988Z,24.70
2023-05-08T15:39:16.470Z,27.73
2023-05-08T15:41:42.862Z,30.48
2023-05-08T15:44:09.289Z,26.85
2023-05-08T15:46:36.173Z,26.30
2023-05-08T15:49:03.153Z,26.98
2023-05-08T15:51:30.015Z,28.58
2023-05-08T15:53:56.585Z,26.65
2023-05-08T15:56:24.604Z,26.45
2023-05-08T15:58:51.855Z,26.42
2023-05-08T16:01:19.390Z,28.92
2023-05-08T16:03:46.681Z,24.83
2023-05-08T16:06:13.611Z,23.55
2023-05-08T16:08:40.051Z,23.98
2023-05-08T16:11:06.509Z,27.15
2023-05-08T16:13:32.885Z,27.67
2023-05-08T16:16:06.358Z,27.00
2023-05-08T16:18:32.855Z,29.58
2023-05-08T16:20:59.234Z,28.33
2023-05-08T16:23:25.825Z,27.20
2023-05-08T16:25:52.745Z,30.20
2023-05-08T16:28:19.117Z,33.20
2023-05-08T16:30:45.825Z,26.27
2023-05-08T16:33:12.626Z,28.17
2023-05-08T16:35:39.985Z,31.90
2023-05-08T16:38:06.480Z,28.95
2023-05-08T16:40:32.996Z,34.33
2023-05-08T16:42:59.423Z,30.48
2023-05-08T16:45:25.943Z,33.40
2023-05-08T16:47:52.436Z,37.97
2023-05-08T16:50:19.014Z,35.78
2023-05-08T16:52:45.744Z,36.45
2023-05-08T16:55:12.467Z,48.75
2023-05-08T16:57:39.409Z,48.60
2023-05-08T17:00:06.702Z,46.35
2023-05-08T17:02:33.271Z,48.47
2023-05-08T17:04:59.789Z,53.50
2023-05-08T17:07:26.357Z,54.85
2023-05-08T17:09:57.275Z,49.72
2023-05-08T17:12:24.605Z,54.03
2023-05-08T17:14:51.122Z,56.67
2023-05-08T17:17:17.604Z,58.70
2023-05-08T17:19:44.091Z,58.28
2023-05-08T17:22:11.402Z,54.10
2023-05-08T17:24:38.008Z,58.67
2023-05-08T17:27:08.051Z,59.03
2023-05-08T17:29:34.911Z,58.30
2023-05-08T17:32:01.581Z,55.13
2023-05-08T17:34:28.300Z,57.00
2023-05-08T17:36:55.359Z,63.42
2023-05-08T17:39:22.337Z,59.40
2023-05-08T17:41:50.071Z,59.45
2023-05-08T17:44:17.266Z,55.53
2023-05-08T17:46:45.255Z,55.00
2023-05-08T17:49:11.736Z,63.40
2023-05-08T17:51:39.425Z,59.58
2023-05-08T17:54:06.781Z,55.70
2023-05-08T17:56:33.392Z,58.63
2023-05-08T17:58:59.797Z,56.95
2023-05-08T18:01:26.429Z,61.05
2023-05-08T18:03:53.694Z,58.83
2023-05-08T18:06:20.698Z,57.15
2023-05-08T18:08:47.604Z,58.75
2023-05-08T18:11:24.710Z,60.08
2023-05-08T18:13:53.054Z,54.15
2023-05-08T18:16:23.624Z,51.40
2023-05-08T18:18:50.460Z,54.58
2023-05-08T18:21:16.861Z,57.55
2023-05-08T18:23:43.881Z,53.35
2023-05-08T18:26:17.197Z,51.42
2023-05-08T18:28:44.487Z,52.60
2023-05-08T18:31:11.967Z,48.25
2023-05-08T18:33:38.824Z,46.03
2023-05-08T18:36:06.931Z,44.60
2023-05-08T18:38:34.216Z,49.45
2023-05-08T18:41:05.077Z,49.78
2023-05-08T18:43:31.691Z,45.38
2023-05-08T18:46:00.361Z,50.38
2023-05-08T18:48:27.257Z,44.05
2023-05-08T18:50:55.851Z,46.90
2023-05-08T19:00:41.414Z,39.15
2023-05-08T19:03:07.966Z,38.92
2023-05-08T19:05:34.378Z,46.20
2023-05-08T19:08:00.790Z,38.90
2023-05-08T19:10:27.292Z,39.50
2023-05-08T19:12:53.742Z,39.50
2023-05-08T19:15:20.226Z,37.08
2023-05-08T19:17:46.906Z,42.53
2023-05-08T19:20:13.707Z,39.35
2023-05-08T19:22:40.485Z,38.15
2023-05-08T19:25:07.174Z,41.00
2023-05-08T19:27:34.205Z,34.42
2023-05-08T19:30:00.894Z,41.05
2023-05-08T19:32:28.692Z,36.00
2023-05-08T19:34:57.343Z,38.83
2023-05-08T19:39:51.012Z,34.20
2023-05-08T19:42:17.468Z,35.63
2023-05-08T19:44:43.833Z,33.78
2023-05-08T19:47:10.393Z,34.03
2023-05-08T19:49:36.888Z,34.97
2023-05-08T19:52:03.383Z,35.00
2023-05-08T19:54:30.299Z,32.03
2023-05-08T19:56:57.159Z,31.90
2023-05-08T19:59:23.748Z,34.72
2023-05-08T20:01:50.357Z,33.17
2023-05-08T20:04:19.640Z,26.67
2023-05-08T20:06:46.248Z,32.50
2023-05-08T20:09:15.734Z,32.78
2023-05-08T20:11:44.094Z,28.15
2023-05-08T20:14:10.548Z,28.77
2023-05-08T20:16:37.236Z,32.17
2023-05-08T20:19:05.674Z,29.67
2023-05-08T20:21:33.837Z,32.15
2023-05-08T20:24:00.958Z,32.17
2023-05-08T20:26:29.052Z,30.65
2023-05-08T20:28:56.499Z,34.65
2023-05-08T20:31:23.111Z,34.78
2023-05-08T20:33:49.875Z,28.55
2023-05-08T20:36:16.506Z,33.92
2023-05-08T20:38:42.982Z,36.42
2023-05-08T20:41:09.410Z,36.25
2023-05-08T20:43:35.906Z,32.15
2023-05-08T20:46:02.763Z,32.60
2023-05-08T20:48:29.295Z,42.20
2023-05-08T20:50:55.932Z,35.90
2023-05-08T20:53:22.300Z,32.58
2023-05-08T20:55:48.862Z,35.42
2023-05-08T20:58:15.508Z,31.60
2023-05-08T21:00:41.913Z,33.67
2023-05-08T21:03:08.336Z,33.58
2023-05-08T21:05:34.846Z,35.03
2023-05-08T21:08:03.366Z,34.08
2023-05-08T21:10:31.447Z,32.38
2023-05-08T21:12:58.018Z,33.40
2023-05-08T21:15:24.536Z,32.70
2023-05-08T21:17:51.050Z,27.95
2023-05-08T21:20:18.081Z,31.50
2023-05-08T21:22:46.253Z,30.33
2023-05-08T21:25:14.870Z,30.77
2023-05-08T21:27:44.864Z,29.60
2023-05-08T21:30:16.300Z,33.40
2023-05-08T21:32:44.033Z,25.27
2023-05-08T21:35:11.924Z,29.45
2023-05-08T21:37:42.176Z,29.48
2023-05-08T21:40:09.652Z,26.67
2023-05-08T21:42:36.225Z,29.40
2023-05-08T21:45:02.751Z,29.65
2023-05-08T21:47:29.355Z,31.23
2023-05-08T21:49:55.994Z,26.00
2023-05-08T21:52:23.193Z,27.90
2023-05-08T21:54:50.276Z,29.25
2023-05-08T21:57:16.895Z,24.90
2023-05-08T21:59:43.442Z,30.70
2023-05-08T22:02:10.052Z,31.73
2023-05-08T22:04:36.537Z,31.90
2023-05-08T22:07:03.133Z,27.30
2023-05-08T22:09:29.810Z,34.15
2023-05-08T22:11:56.245Z,30.48
2023-05-08T22:14:22.708Z,31.92
2023-05-08T22:16:49.868Z,25.90
2023-05-08T22:19:16.459Z,26.88
2023-05-08T22:21:43.120Z,32.90
2023-05-08T22:24:09.554Z,26.13
2023-05-08T22:26:36.042Z,32.20
2023-05-08T22:29:02.467Z,30.27
2023-05-08T22:31:28.938Z,28.40
2023-05-08T22:33:57.435Z,35.17
2023-05-08T22:36:24.189Z,30.35
2023-05-08T22:38:50.701Z,27.98
2023-05-08T22:41:17.167Z,36.95
2023-05-08T22:43:43.652Z,32.33
2023-05-08T22:46:10.579Z,31.30
2023-05-08T22:48:37.570Z,30.50
2023-05-08T22:51:04.454Z,27.92
2023-05-08T22:53:30.904Z,30.90
2023-05-08T22:55:57.404Z,30.63
2023-05-08T22:58:25.170Z,34.88
2023-05-08T23:00:51.983Z,30.83
2023-05-08T23:03:18.526Z,31.42
2023-05-08T23:05:45.016Z,35.53
2023-05-08T23:08:11.438Z,31.90
2023-05-08T23:10:37.877Z,31.35
2023-05-08T23:13:04.335Z,30.90
2023-05-08T23:15:30.864Z,30.58
2023-05-08T23:17:57.514Z,27.10
2023-05-08T23:20:24.196Z,32.92
2023-05-08T23:22:50.689Z,35.30
2023-05-08T23:25:17.277Z,30.42
2023-05-08T23:27:43.894Z,33.78
2023-05-08T23:30:13.261Z,26.35
2023-05-08T23:32:40.162Z,33.00
2023-05-08T23:35:07.252Z,32.90
2023-05-08T23:37:33.733Z,30.52
2023-05-08T23:40:00.210Z,27.58
2023-05-08T23:42:27.135Z,35.97
2023-05-08T23:44:53.774Z,34.42
2023-05-08T23:47:22.392Z,29.30
2023-05-08T23:49:48.782Z,28.98
2023-05-08T23:52:15.310Z,30.92
2023-05-08T23:54:41.734Z,27.92
2023-05-08T23:57:09.369Z,29.95
2023-05-08T23:59:35.777Z,35.00
